Addison, Pennsylvania
Current Conditions -  °F | °C
As of 9:35 PM on Thursday 20 Nov 2014 (Local Time) from K2G4 Reporting Station
Overcast Overcast  
Wind Chill: -13°   Ceiling: 2700
Heat Index: -7°   Visibility: 10mi
Dew Point: -12°   Wind: 9mph
Humidity: 68%   Direction: 280°W
Pressure: 29.97"   Gusts: 24mph
Location:  39.75°N, 79.34°W
Report Text: K2G4 210235Z AUTO 28008G21KT 252V312 10SM OVC027 M07/M12 A2997 RMK AO1
Loading
Personal Weather Stations






























Interactive Weather Map New forecast layout! Learn more

10-Day Weather Forecast

Advertisements
Track Severe Weather on mobile